OHK1104 RCTP-RJFU
Flight info
| Callsign | OHK1104 |
|---|---|
| Flight time | 1h 42m |
| Altitude | 39000 |
| Route | PIANO1A PIANO L3 SALMI B576 ELGEP Y590 BEDAR Y591 FUE V40 OLE |
| Aircraft | A339/H-SADE1E2E3GHIJ3J5M1P2RWXY/LB2D1 |
Departure
| Time | 2026-05-07 12:19 |
|---|---|
| Airport | Taiwan Taoyuan International Airport (RCTP) |
Arrival
| Time | 2026-05-07 14:01 |
|---|---|
| Airport | Nagasaki Airport (RJFU) |
| Time | Latitude | Longitude | Altitude | Speed | Heading |
|---|---|---|---|---|---|
| 2026-05-07 12:00 | 25.07787 | 121.23666 | 88 ft | 0 kts | 319° |
| 2026-05-07 12:06 | 25.07782 | 121.23671 | 106 ft | 2 kts | 319° |
| 2026-05-07 12:06 | 25.07771 | 121.23681 | 104 ft | 2 kts | 319° |
| 2026-05-07 12:06 | 25.07761 | 121.23692 | 105 ft | 2 kts | 319° |
| 2026-05-07 12:07 | 25.07750 | 121.23702 | 104 ft | 2 kts | 319° |
| 2026-05-07 12:07 | 25.07739 | 121.23712 | 105 ft | 2 kts | 315° |
| 2026-05-07 12:07 | 25.07729 | 121.23723 | 106 ft | 2 kts | 302° |
| 2026-05-07 12:07 | 25.07721 | 121.23736 | 106 ft | 2 kts | 288° |
| 2026-05-07 12:08 | 25.07716 | 121.23751 | 107 ft | 2 kts | 275° |
| 2026-05-07 12:08 | 25.07715 | 121.23766 | 107 ft | 2 kts | 262° |
| 2026-05-07 12:08 | 25.07717 | 121.23782 | 105 ft | 2 kts | 248° |
| 2026-05-07 12:08 | 25.07722 | 121.23796 | 106 ft | 1 kts | 235° |
| 2026-05-07 12:09 | 25.07723 | 121.23798 | 106 ft | 0 kts | 234° |
| 2026-05-07 12:12 | 25.07714 | 121.23784 | 105 ft | 6 kts | 234° |
| 2026-05-07 12:12 | 25.07675 | 121.23730 | 109 ft | 11 kts | 230° |
| 2026-05-07 12:12 | 25.07623 | 121.23663 | 105 ft | 12 kts | 229° |
| 2026-05-07 12:12 | 25.07565 | 121.23589 | 105 ft | 14 kts | 229° |
| 2026-05-07 12:13 | 25.07501 | 121.23507 | 106 ft | 15 kts | 229° |
| 2026-05-07 12:13 | 25.07432 | 121.23418 | 107 ft | 16 kts | 229° |
| 2026-05-07 12:13 | 25.07358 | 121.23323 | 106 ft | 17 kts | 229° |
| 2026-05-07 12:13 | 25.07285 | 121.23230 | 107 ft | 11 kts | 229° |
| 2026-05-07 12:14 | 25.07229 | 121.23186 | 107 ft | 10 kts | 193° |
| 2026-05-07 12:14 | 25.07166 | 121.23218 | 106 ft | 11 kts | 141° |
| 2026-05-07 12:14 | 25.07110 | 121.23267 | 106 ft | 10 kts | 152° |
| 2026-05-07 12:14 | 25.07046 | 121.23250 | 106 ft | 10 kts | 216° |
| 2026-05-07 12:15 | 25.06993 | 121.23186 | 106 ft | 12 kts | 229° |
| 2026-05-07 12:15 | 25.06974 | 121.23162 | 105 ft | 13 kts | 229° |
| 2026-05-07 12:15 | 25.06870 | 121.23030 | 105 ft | 15 kts | 229° |
| 2026-05-07 12:15 | 25.06800 | 121.22941 | 107 ft | 16 kts | 229° |
| 2026-05-07 12:16 | 25.06724 | 121.22846 | 107 ft | 17 kts | 229° |
| 2026-05-07 12:16 | 25.06645 | 121.22744 | 106 ft | 18 kts | 230° |
| 2026-05-07 12:16 | 25.06564 | 121.22638 | 107 ft | 19 kts | 228° |
| 2026-05-07 12:16 | 25.06476 | 121.22530 | 105 ft | 19 kts | 228° |
| 2026-05-07 12:17 | 25.06386 | 121.22418 | 106 ft | 20 kts | 229° |
| 2026-05-07 12:17 | 25.06303 | 121.22313 | 106 ft | 16 kts | 229° |
| 2026-05-07 12:17 | 25.06254 | 121.22259 | 106 ft | 6 kts | 214° |
| 2026-05-07 12:17 | 25.06212 | 121.22256 | 106 ft | 7 kts | 169° |
| 2026-05-07 12:18 | 25.06162 | 121.22293 | 104 ft | 10 kts | 141° |
| 2026-05-07 12:18 | 25.06107 | 121.22348 | 103 ft | 6 kts | 134° |
| 2026-05-07 12:18 | 25.06113 | 121.22387 | 103 ft | 6 kts | 66° |
| 2026-05-07 12:18 | 25.06148 | 121.22437 | 103 ft | 16 kts | 50° |
| 2026-05-07 12:19 | 25.06377 | 121.22728 | 100 ft | 94 kts | 49° |
| 2026-05-07 12:19 | 25.06989 | 121.23506 | 105 ft | 170 kts | 49° |
| 2026-05-07 12:19 | 25.07839 | 121.24587 | 586 ft | 191 kts | 49° |
| 2026-05-07 12:19 | 25.08697 | 121.25676 | 1498 ft | 187 kts | 50° |
| 2026-05-07 12:20 | 25.09551 | 121.26763 | 2345 ft | 191 kts | 50° |
| 2026-05-07 12:20 | 25.10442 | 121.27911 | 3013 ft | 200 kts | 49° |
| 2026-05-07 12:20 | 25.11357 | 121.29098 | 3713 ft | 209 kts | 49° |
| 2026-05-07 12:20 | 25.12511 | 121.30144 | 4178 ft | 223 kts | 23° |
| 2026-05-07 12:21 | 25.14044 | 121.30455 | 4750 ft | 229 kts | 353° |
| 2026-05-07 12:21 | 25.15638 | 121.30196 | 5214 ft | 242 kts | 347° |
| 2026-05-07 12:21 | 25.17348 | 121.29869 | 5647 ft | 255 kts | 346° |
| 2026-05-07 12:21 | 25.19105 | 121.29368 | 6048 ft | 266 kts | 339° |
| 2026-05-07 12:22 | 25.20974 | 121.28985 | 6406 ft | 284 kts | 354° |
| 2026-05-07 12:22 | 25.23015 | 121.28900 | 6667 ft | 302 kts | 354° |
| 2026-05-07 12:22 | 25.25120 | 121.28780 | 7423 ft | 297 kts | 353° |
| 2026-05-07 12:22 | 25.27157 | 121.28654 | 8280 ft | 292 kts | 353° |
| 2026-05-07 12:23 | 25.29203 | 121.28541 | 8910 ft | 296 kts | 354° |
| 2026-05-07 12:23 | 25.31268 | 121.28445 | 9566 ft | 298 kts | 354° |
| 2026-05-07 12:23 | 25.33353 | 121.28362 | 10182 ft | 301 kts | 355° |
| 2026-05-07 12:23 | 25.35502 | 121.28280 | 10417 ft | 319 kts | 355° |
| 2026-05-07 12:24 | 25.37001 | 121.28307 | 10509 ft | 333 kts | 4° |
| 2026-05-07 12:24 | 25.40005 | 121.29551 | 10798 ft | 360 kts | 32° |
| 2026-05-07 12:24 | 25.41262 | 121.30758 | 11136 ft | 364 kts | 45° |
| 2026-05-07 12:24 | 25.43456 | 121.33644 | 11850 ft | 369 kts | 50° |
| 2026-05-07 12:25 | 25.45050 | 121.35886 | 12377 ft | 372 kts | 50° |
| 2026-05-07 12:25 | 25.46687 | 121.38125 | 12907 ft | 375 kts | 49° |
| 2026-05-07 12:25 | 25.48367 | 121.40347 | 13451 ft | 378 kts | 47° |
| 2026-05-07 12:25 | 25.50085 | 121.42570 | 13943 ft | 381 kts | 47° |
| 2026-05-07 12:26 | 25.51825 | 121.44796 | 14415 ft | 384 kts | 47° |
| 2026-05-07 12:26 | 25.53584 | 121.47038 | 14891 ft | 387 kts | 47° |
| 2026-05-07 12:26 | 25.55355 | 121.49298 | 15334 ft | 390 kts | 47° |
| 2026-05-07 12:26 | 25.56535 | 121.50805 | 15651 ft | 392 kts | 47° |
| 2026-05-07 12:27 | 25.58327 | 121.53095 | 16124 ft | 394 kts | 47° |
| 2026-05-07 12:27 | 25.60136 | 121.55410 | 16555 ft | 398 kts | 47° |
| 2026-05-07 12:27 | 25.61954 | 121.57740 | 16988 ft | 401 kts | 47° |
| 2026-05-07 12:27 | 25.64383 | 121.60852 | 17591 ft | 404 kts | 47° |
| 2026-05-07 12:28 | 25.65605 | 121.62421 | 17878 ft | 406 kts | 47° |
| 2026-05-07 12:28 | 25.67460 | 121.64801 | 18294 ft | 409 kts | 47° |
| 2026-05-07 12:28 | 25.69332 | 121.67204 | 18681 ft | 412 kts | 47° |
| 2026-05-07 12:28 | 25.71208 | 121.69614 | 19081 ft | 414 kts | 47° |
| 2026-05-07 12:29 | 25.73092 | 121.72035 | 19475 ft | 416 kts | 47° |
| 2026-05-07 12:29 | 25.74991 | 121.74478 | 19863 ft | 419 kts | 47° |
| 2026-05-07 12:29 | 25.76900 | 121.76935 | 20249 ft | 422 kts | 47° |
| 2026-05-07 12:29 | 25.78822 | 121.79410 | 20649 ft | 424 kts | 47° |
| 2026-05-07 12:30 | 25.80857 | 121.81785 | 21032 ft | 425 kts | 40° |
| 2026-05-07 12:30 | 25.83135 | 121.83807 | 21425 ft | 425 kts | 33° |
| 2026-05-07 12:30 | 25.85550 | 121.85721 | 21810 ft | 428 kts | 33° |
| 2026-05-07 12:30 | 25.87975 | 121.87665 | 22216 ft | 431 kts | 33° |
| 2026-05-07 12:31 | 25.90406 | 121.89626 | 22611 ft | 434 kts | 33° |
| 2026-05-07 12:31 | 25.92855 | 121.91609 | 23025 ft | 436 kts | 33° |
| 2026-05-07 12:31 | 25.95318 | 121.93604 | 23436 ft | 439 kts | 33° |
| 2026-05-07 12:31 | 25.97793 | 121.95610 | 23790 ft | 441 kts | 33° |
| 2026-05-07 12:32 | 26.00281 | 121.97628 | 24142 ft | 444 kts | 33° |
| 2026-05-07 12:32 | 26.02790 | 121.99662 | 24477 ft | 446 kts | 33° |
| 2026-05-07 12:32 | 26.05284 | 122.01652 | 24828 ft | 448 kts | 32° |
| 2026-05-07 12:32 | 26.07845 | 122.03648 | 25173 ft | 451 kts | 32° |
| 2026-05-07 12:33 | 26.13019 | 122.07665 | 25843 ft | 456 kts | 32° |
| 2026-05-07 12:33 | 26.15627 | 122.09699 | 26185 ft | 459 kts | 32° |
| 2026-05-07 12:33 | 26.18243 | 122.11745 | 26529 ft | 461 kts | 32° |
| 2026-05-07 12:34 | 26.20871 | 122.13804 | 26852 ft | 464 kts | 32° |
| 2026-05-07 12:34 | 26.23519 | 122.15880 | 27190 ft | 466 kts | 32° |
| 2026-05-07 12:34 | 26.26182 | 122.17971 | 27525 ft | 469 kts | 32° |
| 2026-05-07 12:34 | 26.28853 | 122.20068 | 27844 ft | 472 kts | 32° |
| 2026-05-07 12:35 | 26.31549 | 122.22186 | 28192 ft | 474 kts | 32° |
| 2026-05-07 12:35 | 26.34253 | 122.24311 | 28494 ft | 477 kts | 32° |
| 2026-05-07 12:35 | 26.36939 | 122.26424 | 28816 ft | 479 kts | 32° |
| 2026-05-07 12:35 | 26.39670 | 122.28573 | 29132 ft | 482 kts | 32° |
| 2026-05-07 12:36 | 26.42422 | 122.30740 | 29460 ft | 485 kts | 32° |
| 2026-05-07 12:36 | 26.45190 | 122.32921 | 29783 ft | 487 kts | 32° |
| 2026-05-07 12:36 | 26.47966 | 122.35110 | 30106 ft | 490 kts | 31° |
| 2026-05-07 12:36 | 26.50756 | 122.37312 | 30426 ft | 491 kts | 31° |
| 2026-05-07 12:37 | 26.53551 | 122.39519 | 30788 ft | 492 kts | 31° |
| 2026-05-07 12:37 | 26.56346 | 122.41727 | 31137 ft | 494 kts | 31° |
| 2026-05-07 12:37 | 26.59157 | 122.43948 | 31478 ft | 495 kts | 31° |
| 2026-05-07 12:37 | 26.61969 | 122.46172 | 31812 ft | 497 kts | 31° |
| 2026-05-07 12:38 | 26.64793 | 122.48407 | 32152 ft | 498 kts | 31° |
| 2026-05-07 12:38 | 26.67627 | 122.50651 | 32453 ft | 500 kts | 31° |
| 2026-05-07 12:38 | 26.70470 | 122.52903 | 32724 ft | 501 kts | 31° |
| 2026-05-07 12:38 | 26.73320 | 122.55163 | 32961 ft | 502 kts | 31° |
| 2026-05-07 12:39 | 26.76177 | 122.57429 | 33164 ft | 504 kts | 31° |
| 2026-05-07 12:39 | 26.79043 | 122.59704 | 33352 ft | 505 kts | 31° |
| 2026-05-07 12:39 | 26.81911 | 122.61983 | 33539 ft | 506 kts | 31° |
| 2026-05-07 12:39 | 26.84739 | 122.64231 | 33761 ft | 505 kts | 31° |
| 2026-05-07 12:40 | 26.87606 | 122.66511 | 33981 ft | 505 kts | 31° |
| 2026-05-07 12:40 | 26.90469 | 122.68790 | 34184 ft | 504 kts | 31° |
| 2026-05-07 12:40 | 26.93327 | 122.71066 | 34398 ft | 503 kts | 31° |
| 2026-05-07 12:40 | 26.96182 | 122.73342 | 34606 ft | 502 kts | 31° |
| 2026-05-07 12:41 | 26.99029 | 122.75612 | 34802 ft | 502 kts | 31° |
| 2026-05-07 12:41 | 27.01873 | 122.77882 | 35010 ft | 501 kts | 31° |
| 2026-05-07 12:41 | 27.04713 | 122.80151 | 35214 ft | 500 kts | 30° |
| 2026-05-07 12:41 | 27.07545 | 122.82414 | 35441 ft | 499 kts | 30° |
| 2026-05-07 12:42 | 27.10372 | 122.84674 | 35639 ft | 498 kts | 30° |
| 2026-05-07 12:42 | 27.13189 | 122.86932 | 35865 ft | 497 kts | 30° |
| 2026-05-07 12:42 | 27.15998 | 122.89186 | 36086 ft | 496 kts | 30° |
| 2026-05-07 12:42 | 27.18804 | 122.91437 | 36297 ft | 495 kts | 29° |
| 2026-05-07 12:43 | 27.21569 | 122.93662 | 36500 ft | 495 kts | 30° |
| 2026-05-07 12:43 | 27.24248 | 122.96112 | 36682 ft | 498 kts | 34° |
| 2026-05-07 12:43 | 27.26878 | 122.98649 | 36874 ft | 497 kts | 34° |
| 2026-05-07 12:43 | 27.29506 | 123.01170 | 37076 ft | 496 kts | 33° |
| 2026-05-07 12:44 | 27.32133 | 123.03683 | 37275 ft | 496 kts | 33° |
| 2026-05-07 12:44 | 27.34760 | 123.06197 | 37470 ft | 495 kts | 33° |
| 2026-05-07 12:44 | 27.37376 | 123.08703 | 37664 ft | 494 kts | 33° |
| 2026-05-07 12:44 | 27.39989 | 123.11207 | 37860 ft | 493 kts | 33° |
| 2026-05-07 12:45 | 27.42598 | 123.13710 | 38051 ft | 492 kts | 33° |
| 2026-05-07 12:45 | 27.45205 | 123.16213 | 38236 ft | 492 kts | 33° |
| 2026-05-07 12:45 | 27.47803 | 123.18710 | 38427 ft | 491 kts | 32° |
| 2026-05-07 12:45 | 27.50399 | 123.21206 | 38599 ft | 490 kts | 32° |
| 2026-05-07 12:46 | 27.52994 | 123.23703 | 38751 ft | 490 kts | 32° |
| 2026-05-07 12:46 | 27.55586 | 123.26198 | 38872 ft | 490 kts | 32° |
| 2026-05-07 12:46 | 27.60743 | 123.31167 | 38975 ft | 490 kts | 32° |
| 2026-05-07 12:47 | 27.65913 | 123.36159 | 38977 ft | 489 kts | 32° |
| 2026-05-07 12:47 | 27.71090 | 123.41161 | 38980 ft | 489 kts | 32° |
| 2026-05-07 12:48 | 27.76265 | 123.46165 | 38979 ft | 490 kts | 32° |
| 2026-05-07 12:48 | 27.81452 | 123.51187 | 38979 ft | 491 kts | 32° |
| 2026-05-07 12:49 | 27.86647 | 123.56225 | 38982 ft | 492 kts | 32° |
| 2026-05-07 12:49 | 27.91854 | 123.61280 | 38982 ft | 493 kts | 32° |
| 2026-05-07 12:50 | 27.97066 | 123.66347 | 38982 ft | 494 kts | 32° |
| 2026-05-07 12:50 | 28.02253 | 123.71396 | 38986 ft | 495 kts | 32° |
| 2026-05-07 12:51 | 28.07495 | 123.76505 | 38987 ft | 496 kts | 33° |
| 2026-05-07 12:51 | 28.12705 | 123.81591 | 38988 ft | 497 kts | 32° |
| 2026-05-07 12:52 | 28.17950 | 123.86718 | 38988 ft | 498 kts | 33° |
| 2026-05-07 12:52 | 28.23203 | 123.91860 | 38986 ft | 499 kts | 33° |
| 2026-05-07 12:53 | 28.28466 | 123.97022 | 38990 ft | 500 kts | 33° |
| 2026-05-07 12:53 | 28.33333 | 124.02802 | 38991 ft | 513 kts | 44° |
| 2026-05-07 12:54 | 28.37614 | 124.09346 | 38991 ft | 517 kts | 46° |
| 2026-05-07 12:54 | 28.41908 | 124.15895 | 38997 ft | 517 kts | 46° |
| 2026-05-07 12:55 | 28.46214 | 124.22476 | 38995 ft | 518 kts | 46° |
| 2026-05-07 12:55 | 28.50489 | 124.29027 | 38999 ft | 519 kts | 46° |
| 2026-05-07 12:56 | 28.54791 | 124.35633 | 38996 ft | 520 kts | 46° |
| 2026-05-07 12:56 | 28.59096 | 124.42253 | 38997 ft | 521 kts | 46° |
| 2026-05-07 12:57 | 28.63408 | 124.48894 | 38985 ft | 521 kts | 46° |
| 2026-05-07 12:57 | 28.67715 | 124.55537 | 38998 ft | 522 kts | 46° |
| 2026-05-07 12:58 | 28.72026 | 124.62197 | 39015 ft | 522 kts | 46° |
| 2026-05-07 12:58 | 28.76731 | 124.68264 | 39009 ft | 505 kts | 31° |
| 2026-05-07 12:59 | 28.82565 | 124.72386 | 39009 ft | 484 kts | 14° |
| 2026-05-07 12:59 | 28.88847 | 124.74919 | 39012 ft | 478 kts | 9° |
| 2026-05-07 13:00 | 28.95144 | 124.77418 | 39009 ft | 479 kts | 10° |
| 2026-05-07 13:00 | 29.01445 | 124.79934 | 39011 ft | 480 kts | 10° |
| 2026-05-07 13:01 | 29.07758 | 124.82456 | 39013 ft | 480 kts | 10° |
| 2026-05-07 13:01 | 29.14035 | 124.84965 | 39007 ft | 481 kts | 10° |
| 2026-05-07 13:02 | 29.20352 | 124.87493 | 39013 ft | 481 kts | 10° |
| 2026-05-07 13:02 | 29.26680 | 124.90028 | 39010 ft | 481 kts | 10° |
| 2026-05-07 13:03 | 29.33008 | 124.92567 | 39012 ft | 482 kts | 10° |
| 2026-05-07 13:03 | 29.39351 | 124.95115 | 39009 ft | 483 kts | 11° |
| 2026-05-07 13:04 | 29.45652 | 124.97651 | 39009 ft | 483 kts | 11° |
| 2026-05-07 13:04 | 29.52003 | 125.00210 | 39010 ft | 484 kts | 11° |
| 2026-05-07 13:05 | 29.58359 | 125.02775 | 39013 ft | 484 kts | 11° |
| 2026-05-07 13:05 | 29.64720 | 125.05346 | 39010 ft | 484 kts | 11° |
| 2026-05-07 13:06 | 29.71090 | 125.07923 | 39008 ft | 485 kts | 11° |
| 2026-05-07 13:06 | 29.77456 | 125.10503 | 39010 ft | 485 kts | 11° |
| 2026-05-07 13:07 | 29.83793 | 125.13074 | 39009 ft | 485 kts | 11° |
| 2026-05-07 13:07 | 29.90170 | 125.15665 | 39009 ft | 486 kts | 11° |
| 2026-05-07 13:08 | 29.96554 | 125.18261 | 39008 ft | 487 kts | 11° |
| 2026-05-07 13:08 | 30.02943 | 125.20865 | 39008 ft | 487 kts | 11° |
| 2026-05-07 13:09 | 30.09342 | 125.23484 | 39006 ft | 488 kts | 11° |
| 2026-05-07 13:09 | 30.15702 | 125.26089 | 39010 ft | 488 kts | 11° |
| 2026-05-07 13:10 | 30.22107 | 125.28716 | 39007 ft | 489 kts | 11° |
| 2026-05-07 13:10 | 30.28523 | 125.31351 | 39008 ft | 489 kts | 11° |
| 2026-05-07 13:11 | 30.34952 | 125.33995 | 39011 ft | 490 kts | 11° |
| 2026-05-07 13:11 | 30.41382 | 125.36643 | 39010 ft | 490 kts | 11° |
| 2026-05-07 13:12 | 30.47813 | 125.39295 | 39009 ft | 491 kts | 11° |
| 2026-05-07 13:12 | 30.54212 | 125.41938 | 39012 ft | 491 kts | 11° |
| 2026-05-07 13:13 | 30.60652 | 125.44601 | 39017 ft | 491 kts | 11° |
| 2026-05-07 13:13 | 30.67095 | 125.47270 | 39018 ft | 492 kts | 11° |
| 2026-05-07 13:14 | 30.73544 | 125.49944 | 39017 ft | 492 kts | 11° |
| 2026-05-07 13:14 | 30.79994 | 125.52623 | 39013 ft | 492 kts | 11° |
| 2026-05-07 13:15 | 30.86439 | 125.55304 | 39021 ft | 492 kts | 11° |
| 2026-05-07 13:15 | 30.92856 | 125.57976 | 39019 ft | 492 kts | 11° |
| 2026-05-07 13:16 | 30.99304 | 125.60666 | 39018 ft | 492 kts | 11° |
| 2026-05-07 13:16 | 31.05754 | 125.63360 | 39019 ft | 492 kts | 11° |
| 2026-05-07 13:17 | 31.11106 | 125.65598 | 39025 ft | 492 kts | 11° |
| 2026-05-07 13:17 | 31.17550 | 125.68296 | 39016 ft | 492 kts | 11° |
| 2026-05-07 13:18 | 31.24001 | 125.71001 | 39019 ft | 492 kts | 11° |
| 2026-05-07 13:18 | 31.30452 | 125.73711 | 39015 ft | 492 kts | 11° |
| 2026-05-07 13:19 | 31.36895 | 125.76421 | 39011 ft | 492 kts | 11° |
| 2026-05-07 13:19 | 31.43346 | 125.79138 | 39008 ft | 492 kts | 11° |
| 2026-05-07 13:20 | 31.49750 | 125.81839 | 39016 ft | 492 kts | 11° |
| 2026-05-07 13:20 | 31.56198 | 125.84563 | 39014 ft | 492 kts | 11° |
| 2026-05-07 13:21 | 31.62645 | 125.87285 | 39014 ft | 492 kts | 11° |
| 2026-05-07 13:21 | 31.69087 | 125.90064 | 39010 ft | 497 kts | 16° |
| 2026-05-07 13:22 | 31.72148 | 125.92042 | 39009 ft | 508 kts | 27° |
| 2026-05-07 13:22 | 31.74941 | 125.94654 | 39010 ft | 519 kts | 37° |
| 2026-05-07 13:22 | 31.77364 | 125.97840 | 39006 ft | 528 kts | 48° |
| 2026-05-07 13:22 | 31.79321 | 126.01521 | 39006 ft | 535 kts | 59° |
| 2026-05-07 13:23 | 31.80726 | 126.05588 | 39008 ft | 540 kts | 71° |
| 2026-05-07 13:23 | 31.81662 | 126.09877 | 39003 ft | 541 kts | 74° |
| 2026-05-07 13:23 | 31.83493 | 126.18402 | 39008 ft | 541 kts | 73° |
| 2026-05-07 13:24 | 31.85356 | 126.26980 | 39009 ft | 541 kts | 73° |
| 2026-05-07 13:24 | 31.87213 | 126.35566 | 39012 ft | 541 kts | 73° |
| 2026-05-07 13:25 | 31.89060 | 126.44144 | 39011 ft | 540 kts | 73° |
| 2026-05-07 13:25 | 31.90912 | 126.52726 | 39010 ft | 540 kts | 73° |
| 2026-05-07 13:26 | 31.92812 | 126.61280 | 39013 ft | 540 kts | 73° |
| 2026-05-07 13:26 | 31.94706 | 126.69835 | 39009 ft | 540 kts | 73° |
| 2026-05-07 13:27 | 31.96586 | 126.78391 | 39009 ft | 539 kts | 73° |
| 2026-05-07 13:27 | 31.98457 | 126.86940 | 39014 ft | 539 kts | 73° |
| 2026-05-07 13:28 | 32.00308 | 126.95432 | 39013 ft | 538 kts | 73° |
| 2026-05-07 13:28 | 32.02162 | 127.03964 | 39009 ft | 537 kts | 73° |
| 2026-05-07 13:29 | 32.04157 | 127.12436 | 39010 ft | 534 kts | 67° |
| 2026-05-07 13:29 | 32.07084 | 127.20444 | 39004 ft | 531 kts | 62° |
| 2026-05-07 13:30 | 32.08583 | 127.24393 | 38846 ft | 527 kts | 63° |
| 2026-05-07 13:30 | 32.10061 | 127.28320 | 38710 ft | 519 kts | 63° |
| 2026-05-07 13:30 | 32.11517 | 127.32196 | 38341 ft | 515 kts | 63° |
| 2026-05-07 13:30 | 32.12962 | 127.36043 | 37925 ft | 511 kts | 63° |
| 2026-05-07 13:31 | 32.14380 | 127.39823 | 37499 ft | 507 kts | 63° |
| 2026-05-07 13:31 | 32.15817 | 127.43652 | 37072 ft | 503 kts | 64° |
| 2026-05-07 13:31 | 32.17211 | 127.47370 | 36684 ft | 499 kts | 64° |
| 2026-05-07 13:31 | 32.18610 | 127.51103 | 36273 ft | 495 kts | 64° |
| 2026-05-07 13:32 | 32.19994 | 127.54802 | 35888 ft | 491 kts | 64° |
| 2026-05-07 13:32 | 32.21368 | 127.58479 | 35491 ft | 487 kts | 64° |
| 2026-05-07 13:32 | 32.22731 | 127.62132 | 35084 ft | 484 kts | 65° |
| 2026-05-07 13:32 | 32.24083 | 127.65759 | 34712 ft | 480 kts | 65° |
| 2026-05-07 13:33 | 32.25423 | 127.69360 | 34326 ft | 477 kts | 65° |
| 2026-05-07 13:33 | 32.26752 | 127.72934 | 33940 ft | 473 kts | 65° |
| 2026-05-07 13:33 | 32.28071 | 127.76487 | 33511 ft | 470 kts | 65° |
| 2026-05-07 13:33 | 32.29379 | 127.80013 | 33038 ft | 467 kts | 65° |
| 2026-05-07 13:34 | 32.30678 | 127.83519 | 32593 ft | 465 kts | 65° |
| 2026-05-07 13:34 | 32.33257 | 127.90488 | 31703 ft | 460 kts | 65° |
| 2026-05-07 13:34 | 32.34518 | 127.93899 | 31263 ft | 458 kts | 66° |
| 2026-05-07 13:35 | 32.35788 | 127.97340 | 30817 ft | 455 kts | 66° |
| 2026-05-07 13:35 | 32.37051 | 128.00764 | 30381 ft | 453 kts | 66° |
| 2026-05-07 13:35 | 32.38310 | 128.04183 | 29919 ft | 451 kts | 66° |
| 2026-05-07 13:35 | 32.39557 | 128.07573 | 29437 ft | 448 kts | 66° |
| 2026-05-07 13:36 | 32.40793 | 128.10940 | 28985 ft | 444 kts | 66° |
| 2026-05-07 13:36 | 32.42019 | 128.14279 | 28497 ft | 441 kts | 66° |
| 2026-05-07 13:36 | 32.43237 | 128.17601 | 28045 ft | 438 kts | 66° |
| 2026-05-07 13:36 | 32.44444 | 128.20895 | 27594 ft | 435 kts | 66° |
| 2026-05-07 13:37 | 32.45645 | 128.24174 | 27134 ft | 431 kts | 66° |
| 2026-05-07 13:37 | 32.46832 | 128.27418 | 26684 ft | 428 kts | 65° |
| 2026-05-07 13:37 | 32.48011 | 128.30646 | 26239 ft | 425 kts | 65° |
| 2026-05-07 13:37 | 32.49181 | 128.33849 | 25792 ft | 422 kts | 65° |
| 2026-05-07 13:38 | 32.50342 | 128.37032 | 25350 ft | 419 kts | 65° |
| 2026-05-07 13:38 | 32.51494 | 128.40193 | 24914 ft | 416 kts | 65° |
| 2026-05-07 13:38 | 32.52638 | 128.43334 | 24479 ft | 413 kts | 65° |
| 2026-05-07 13:38 | 32.53771 | 128.46451 | 24047 ft | 410 kts | 65° |
| 2026-05-07 13:39 | 32.54897 | 128.49549 | 23614 ft | 408 kts | 65° |
| 2026-05-07 13:39 | 32.56000 | 128.52588 | 23118 ft | 405 kts | 65° |
| 2026-05-07 13:39 | 32.57110 | 128.55644 | 22613 ft | 402 kts | 65° |
| 2026-05-07 13:39 | 32.58213 | 128.58687 | 22107 ft | 400 kts | 66° |
| 2026-05-07 13:40 | 32.59308 | 128.61707 | 21615 ft | 397 kts | 66° |
| 2026-05-07 13:40 | 32.60394 | 128.64708 | 21134 ft | 394 kts | 66° |
| 2026-05-07 13:40 | 32.61474 | 128.67696 | 20659 ft | 392 kts | 66° |
| 2026-05-07 13:40 | 32.62544 | 128.70658 | 20190 ft | 390 kts | 66° |
| 2026-05-07 13:41 | 32.63607 | 128.73605 | 19747 ft | 387 kts | 66° |
| 2026-05-07 13:41 | 32.64663 | 128.76535 | 19298 ft | 385 kts | 66° |
| 2026-05-07 13:41 | 32.65713 | 128.79447 | 18849 ft | 383 kts | 67° |
| 2026-05-07 13:41 | 32.66728 | 128.82315 | 18397 ft | 380 kts | 70° |
| 2026-05-07 13:42 | 32.67475 | 128.85312 | 17914 ft | 376 kts | 77° |
| 2026-05-07 13:42 | 32.68113 | 128.88309 | 17438 ft | 373 kts | 77° |
| 2026-05-07 13:42 | 32.68760 | 128.91272 | 16976 ft | 369 kts | 76° |
| 2026-05-07 13:42 | 32.69408 | 128.94207 | 16508 ft | 365 kts | 76° |
| 2026-05-07 13:43 | 32.70050 | 128.97113 | 16047 ft | 362 kts | 76° |
| 2026-05-07 13:43 | 32.70685 | 128.99988 | 15583 ft | 358 kts | 76° |
| 2026-05-07 13:43 | 32.71312 | 129.02832 | 15128 ft | 355 kts | 76° |
| 2026-05-07 13:43 | 32.71933 | 129.05656 | 14677 ft | 351 kts | 76° |
| 2026-05-07 13:44 | 32.72546 | 129.08447 | 14221 ft | 348 kts | 76° |
| 2026-05-07 13:44 | 32.73152 | 129.11211 | 13771 ft | 344 kts | 76° |
| 2026-05-07 13:44 | 32.73752 | 129.13948 | 13260 ft | 341 kts | 76° |
| 2026-05-07 13:44 | 32.74346 | 129.16658 | 12744 ft | 337 kts | 76° |
| 2026-05-07 13:45 | 32.74934 | 129.19346 | 12224 ft | 334 kts | 76° |
| 2026-05-07 13:45 | 32.75507 | 129.21970 | 11753 ft | 330 kts | 76° |
| 2026-05-07 13:45 | 32.76080 | 129.24601 | 11235 ft | 327 kts | 76° |
| 2026-05-07 13:45 | 32.76647 | 129.27202 | 10741 ft | 324 kts | 76° |
| 2026-05-07 13:46 | 32.77209 | 129.29782 | 10237 ft | 321 kts | 76° |
| 2026-05-07 13:46 | 32.77763 | 129.32333 | 9741 ft | 317 kts | 76° |
| 2026-05-07 13:46 | 32.78310 | 129.34854 | 9208 ft | 312 kts | 76° |
| 2026-05-07 13:46 | 32.78842 | 129.37313 | 9003 ft | 303 kts | 76° |
| 2026-05-07 13:47 | 32.79381 | 129.39804 | 9004 ft | 314 kts | 76° |
| 2026-05-07 13:47 | 32.79921 | 129.42304 | 9002 ft | 311 kts | 76° |
| 2026-05-07 13:47 | 32.80459 | 129.44799 | 8998 ft | 312 kts | 76° |
| 2026-05-07 13:47 | 32.80997 | 129.47299 | 9000 ft | 312 kts | 76° |
| 2026-05-07 13:48 | 32.81536 | 129.49801 | 8998 ft | 312 kts | 76° |
| 2026-05-07 13:48 | 32.82073 | 129.52298 | 8996 ft | 312 kts | 76° |
| 2026-05-07 13:48 | 32.82604 | 129.54768 | 8997 ft | 312 kts | 76° |
| 2026-05-07 13:48 | 32.83148 | 129.57303 | 9001 ft | 312 kts | 76° |
| 2026-05-07 13:49 | 32.83677 | 129.59772 | 8995 ft | 312 kts | 76° |
| 2026-05-07 13:49 | 32.84212 | 129.62271 | 9002 ft | 312 kts | 76° |
| 2026-05-07 13:49 | 32.84748 | 129.64773 | 8984 ft | 311 kts | 76° |
| 2026-05-07 13:49 | 32.85282 | 129.67261 | 8716 ft | 309 kts | 76° |
| 2026-05-07 13:50 | 32.85813 | 129.69733 | 8336 ft | 305 kts | 76° |
| 2026-05-07 13:50 | 32.86333 | 129.72159 | 7952 ft | 297 kts | 76° |
| 2026-05-07 13:50 | 32.86829 | 129.74473 | 7693 ft | 282 kts | 76° |
| 2026-05-07 13:50 | 32.87307 | 129.76705 | 7279 ft | 277 kts | 76° |
| 2026-05-07 13:51 | 32.87779 | 129.78911 | 6824 ft | 274 kts | 76° |
| 2026-05-07 13:51 | 32.88246 | 129.81091 | 6375 ft | 270 kts | 76° |
| 2026-05-07 13:51 | 32.88709 | 129.83246 | 5896 ft | 267 kts | 76° |
| 2026-05-07 13:51 | 32.89172 | 129.85377 | 5440 ft | 264 kts | 76° |
| 2026-05-07 13:52 | 32.89632 | 129.87483 | 4994 ft | 262 kts | 76° |
| 2026-05-07 13:52 | 32.89903 | 129.89589 | 4567 ft | 254 kts | 96° |
| 2026-05-07 13:52 | 32.89391 | 129.91509 | 4321 ft | 238 kts | 127° |
| 2026-05-07 13:52 | 32.88212 | 129.92750 | 4242 ft | 228 kts | 155° |
| 2026-05-07 13:53 | 32.86822 | 129.93637 | 4176 ft | 224 kts | 156° |
| 2026-05-07 13:53 | 32.85474 | 129.94493 | 4088 ft | 215 kts | 155° |
| 2026-05-07 13:53 | 32.84191 | 129.95322 | 4020 ft | 204 kts | 156° |
| 2026-05-07 13:53 | 32.82925 | 129.95999 | 3955 ft | 197 kts | 161° |
| 2026-05-07 13:54 | 32.81733 | 129.96766 | 3929 ft | 192 kts | 154° |
| 2026-05-07 13:54 | 32.80589 | 129.97547 | 3940 ft | 186 kts | 155° |
| 2026-05-07 13:54 | 32.79479 | 129.98279 | 3963 ft | 182 kts | 155° |
| 2026-05-07 13:54 | 32.78360 | 129.98986 | 3998 ft | 182 kts | 159° |
| 2026-05-07 13:55 | 32.77206 | 129.99640 | 3976 ft | 185 kts | 157° |
| 2026-05-07 13:55 | 32.76095 | 130.00429 | 4032 ft | 185 kts | 151° |
| 2026-05-07 13:55 | 32.75033 | 130.01292 | 4075 ft | 184 kts | 150° |
| 2026-05-07 13:55 | 32.73981 | 130.02161 | 4088 ft | 186 kts | 148° |
| 2026-05-07 13:56 | 32.73267 | 130.03438 | 3907 ft | 193 kts | 106° |
| 2026-05-07 13:56 | 32.73448 | 130.05010 | 3666 ft | 198 kts | 64° |
| 2026-05-07 13:56 | 32.74407 | 130.06118 | 3389 ft | 192 kts | 22° |
| 2026-05-07 13:56 | 32.75659 | 130.06260 | 3090 ft | 182 kts | 342° |
| 2026-05-07 13:57 | 32.76882 | 130.05889 | 2821 ft | 180 kts | 341° |
| 2026-05-07 13:57 | 32.78070 | 130.05528 | 2665 ft | 171 kts | 339° |
| 2026-05-07 13:57 | 32.79038 | 130.04828 | 2518 ft | 165 kts | 317° |
| 2026-05-07 13:57 | 32.79933 | 130.03959 | 2517 ft | 164 kts | 314° |
| 2026-05-07 13:58 | 32.80750 | 130.03025 | 2486 ft | 162 kts | 309° |
| 2026-05-07 13:58 | 32.81549 | 130.02071 | 2337 ft | 160 kts | 311° |
| 2026-05-07 13:58 | 32.82362 | 130.01229 | 2178 ft | 151 kts | 316° |
| 2026-05-07 13:58 | 32.83180 | 130.00469 | 1938 ft | 151 kts | 319° |
| 2026-05-07 13:59 | 32.84020 | 129.99708 | 1682 ft | 153 kts | 315° |
| 2026-05-07 13:59 | 32.84800 | 129.98848 | 1505 ft | 153 kts | 313° |
| 2026-05-07 13:59 | 32.85562 | 129.97951 | 1295 ft | 155 kts | 311° |
| 2026-05-07 13:59 | 32.86344 | 129.97060 | 1128 ft | 156 kts | 315° |
| 2026-05-07 14:00 | 32.87154 | 129.96189 | 943 ft | 158 kts | 316° |
| 2026-05-07 14:00 | 32.87972 | 129.95303 | 738 ft | 159 kts | 316° |
| 2026-05-07 14:00 | 32.88806 | 129.94447 | 579 ft | 158 kts | 317° |
| 2026-05-07 14:00 | 32.89613 | 129.93557 | 372 ft | 158 kts | 316° |
| 2026-05-07 14:01 | 32.90420 | 129.92711 | 148 ft | 155 kts | 317° |
| 2026-05-07 14:01 | 32.91212 | 129.91865 | 29 ft | 150 kts | 316° |
| 2026-05-07 14:01 | 32.91860 | 129.91164 | 19 ft | 95 kts | 319° |
| 2026-05-07 14:01 | 32.92204 | 129.90800 | 22 ft | 39 kts | 319° |
| 2026-05-07 14:02 | 32.92333 | 129.90670 | 22 ft | 14 kts | 332° |
| 2026-05-07 14:02 | 32.92419 | 129.90716 | 17 ft | 13 kts | 47° |
| 2026-05-07 14:02 | 32.92453 | 129.90781 | 17 ft | 8 kts | 77° |
| 2026-05-07 14:02 | 32.92425 | 129.90839 | 17 ft | 9 kts | 131° |
| 2026-05-07 14:03 | 32.92374 | 129.90895 | 18 ft | 11 kts | 137° |
| 2026-05-07 14:03 | 32.92314 | 129.90961 | 19 ft | 12 kts | 138° |
| 2026-05-07 14:03 | 32.92249 | 129.91029 | 22 ft | 13 kts | 139° |
| 2026-05-07 14:03 | 32.92175 | 129.91107 | 20 ft | 16 kts | 137° |
| 2026-05-07 14:04 | 32.92086 | 129.91202 | 17 ft | 18 kts | 138° |
| 2026-05-07 14:04 | 32.91988 | 129.91306 | 15 ft | 20 kts | 138° |
| 2026-05-07 14:04 | 32.91878 | 129.91423 | 14 ft | 22 kts | 138° |
| 2026-05-07 14:04 | 32.91805 | 129.91502 | 15 ft | 21 kts | 138° |
| 2026-05-07 14:05 | 32.91692 | 129.91623 | 16 ft | 22 kts | 138° |
| 2026-05-07 14:05 | 32.91582 | 129.91741 | 22 ft | 17 kts | 137° |
| 2026-05-07 14:05 | 32.91458 | 129.91873 | 19 ft | 19 kts | 138° |
| 2026-05-07 14:05 | 32.91376 | 129.91960 | 19 ft | 11 kts | 139° |
| 2026-05-07 14:06 | 32.91319 | 129.92021 | 18 ft | 9 kts | 138° |
| 2026-05-07 14:06 | 32.91290 | 129.92058 | 17 ft | 7 kts | 120° |
| 2026-05-07 14:06 | 32.91309 | 129.92100 | 20 ft | 7 kts | 51° |
| 2026-05-07 14:06 | 32.91341 | 129.92139 | 16 ft | 5 kts | 47° |
| 2026-05-07 14:07 | 32.91362 | 129.92167 | 18 ft | 5 kts | 47° |
| 2026-05-07 14:07 | 32.91377 | 129.92186 | 17 ft | 0 kts | 47° |